Time;durP1;ratioP1;P1;durP2;ratioP2;P2;SDS_P1;SDS_P2;PMS_P1;PMS_P2;Temp;Humidity;BMP_temperature;BMP_pressure;BME280_temperature;BME280_humidity;BME280_pressure;Samples;Min_cycle;Max_cycle;Signal;HPM_P1;HPM_P2
2022/01/01 00:01:28;;;;;;;76.88;39.45;;;12.00;99.90;;;;;;5033171;28;20037;-72
2022/01/01 00:03:54;;;;;;;72.53;36.97;;;12.00;99.90;;;;;;5032817;28;20049;-72
2022/01/01 00:06:19;;;;;;;78.03;40.60;;;12.00;99.90;;;;;;5034816;28;20045;-72
2022/01/01 00:08:45;;;;;;;83.78;38.05;;;12.00;99.90;;;;;;5036462;28;20044;-72
2022/01/01 00:11:12;;;;;;;75.32;35.88;;;12.00;99.90;;;;;;5035165;28;20101;-72
2022/01/01 00:13:37;;;;;;;69.22;33.03;;;12.00;99.90;;;;;;5033881;28;20049;-72
2022/01/01 00:16:09;;;;;;;60.83;28.92;;;11.90;99.90;;;;;;5034631;28;20052;-72
2022/01/01 00:18:37;;;;;;;63.28;29.38;;;12.00;99.90;;;;;;5033801;28;20038;-72
2022/01/01 00:21:05;;;;;;;67.22;28.02;;;11.90;99.90;;;;;;5035400;28;20397;-72
2022/01/01 00:23:30;;;;;;;61.70;27.25;;;11.90;99.90;;;;;;5036377;28;20045;-72
2022/01/01 00:25:56;;;;;;;55.72;25.25;;;11.90;99.90;;;;;;5032983;28;20087;-72
2022/01/01 00:28:22;;;;;;;52.95;23.58;;;11.90;99.90;;;;;;5034299;28;20064;-73
2022/01/01 00:30:47;;;;;;;45.28;22.27;;;11.90;99.90;;;;;;5034041;28;20704;-72
2022/01/01 00:33:13;;;;;;;54.45;23.08;;;11.90;99.90;;;;;;5033653;28;20047;-72
2022/01/01 00:35:40;;;;;;;59.25;23.05;;;11.80;99.90;;;;;;5037716;28;20409;-72
2022/01/01 00:38:06;;;;;;;50.30;21.50;;;11.90;99.90;;;;;;5036969;28;20060;-73
2022/01/01 00:40:31;;;;;;;47.42;21.35;;;11.90;99.90;;;;;;5034909;28;20449;-73
2022/01/01 00:42:57;;;;;;;60.70;22.92;;;11.90;99.90;;;;;;5032527;28;20067;-73
2022/01/01 00:45:23;;;;;;;52.55;22.63;;;11.80;99.90;;;;;;5033814;28;20046;-73
2022/01/01 00:47:49;;;;;;;49.63;22.05;;;11.80;99.90;;;;;;5032509;28;20405;-73
2022/01/01 00:50:14;;;;;;;61.90;26.25;;;11.80;99.90;;;;;;5049072;28;20041;-72
2022/01/01 00:52:42;;;;;;;59.55;25.90;;;11.80;99.90;;;;;;5032327;28;20383;-73
2022/01/01 00:55:08;;;;;;;59.45;28.23;;;11.80;99.90;;;;;;5048913;28;20128;-72
2022/01/01 00:57:34;;;;;;;69.32;30.70;;;11.80;99.90;;;;;;5032357;28;20038;-73
2022/01/01 01:00:01;;;;;;;67.78;29.83;;;11.70;99.90;;;;;;5032583;28;20037;-72
2022/01/01 01:02:27;;;;;;;71.50;31.35;;;11.70;99.90;;;;;;5031863;28;20120;-72
2022/01/01 01:04:52;;;;;;;73.18;31.95;;;11.80;99.90;;;;;;5032343;28;20121;-72
2022/01/01 01:07:18;;;;;;;65.63;31.13;;;11.80;99.90;;;;;;5032142;28;20811;-72
2022/01/01 01:09:43;;;;;;;66.93;32.33;;;11.70;99.90;;;;;;5031450;28;20132;-72
2022/01/01 01:12:09;;;;;;;76.32;34.35;;;11.70;99.90;;;;;;5031678;28;20041;-73
2022/01/01 01:14:41;;;;;;;79.50;34.88;;;11.70;99.90;;;;;;5031984;28;20518;-72
2022/01/01 01:17:08;;;;;;;74.75;35.70;;;11.70;99.90;;;;;;5032285;28;20386;-73
2022/01/01 01:19:37;;;;;;;83.78;36.17;;;11.70;99.90;;;;;;5032276;28;20053;-73
2022/01/01 01:22:03;;;;;;;82.90;36.95;;;11.70;99.90;;;;;;5031618;28;20126;-72
2022/01/01 01:24:39;;;;;;;87.28;38.60;;;11.70;99.90;;;;;;5032152;28;20056;-72
2022/01/01 01:27:06;;;;;;;81.75;39.40;;;11.70;99.90;;;;;;5034985;28;20080;-73
2022/01/01 01:29:33;;;;;;;85.93;38.17;;;11.70;99.90;;;;;;5035312;28;20037;-72
2022/01/01 01:31:58;;;;;;;89.68;38.75;;;11.70;99.90;;;;;;5035129;28;20049;-72
2022/01/01 01:34:24;;;;;;;74.20;38.70;;;11.60;99.90;;;;;;5030161;28;20048;-72
2022/01/01 01:36:50;;;;;;;82.90;38.58;;;11.70;99.90;;;;;;5031543;28;20037;-73
2022/01/01 01:39:15;;;;;;;75.18;38.05;;;11.60;99.90;;;;;;5031464;28;20037;-73
2022/01/01 01:41:43;;;;;;;81.80;40.13;;;11.60;99.90;;;;;;5031423;28;20095;-73
2022/01/01 01:44:35;;;;;;;84.88;39.22;;;11.70;99.90;;;;;;5031533;28;20037;-72
2022/01/01 01:47:13;;;;;;;89.40;39.07;;;11.60;99.90;;;;;;5032026;28;20526;-73
2022/01/01 01:49:44;;;;;;;89.75;40.70;;;11.70;99.90;;;;;;5033387;28;20038;-73
2022/01/01 01:52:15;;;;;;;87.03;38.83;;;11.60;99.90;;;;;;5017040;28;20081;-73
2022/01/01 01:54:41;;;;;;;92.07;41.55;;;11.70;99.90;;;;;;5032865;28;20394;-73
2022/01/01 01:57:08;;;;;;;85.38;39.72;;;11.70;99.90;;;;;;5031553;28;20056;-73
2022/01/01 01:59:34;;;;;;;85.20;40.80;;;11.70;99.90;;;;;;5031429;28;20090;-72
2022/01/01 02:01:59;;;;;;;87.80;40.20;;;11.60;99.90;;;;;;5014788;28;20049;-73
2022/01/01 02:04:25;;;;;;;85.30;40.72;;;11.60;99.90;;;;;;5031546;28;20045;-72
2022/01/01 02:06:51;;;;;;;94.75;40.83;;;11.60;99.90;;;;;;5032397;28;20041;-72
2022/01/01 02:09:16;;;;;;;85.85;42.20;;;11.70;99.90;;;;;;5031114;28;20033;-72
2022/01/01 02:11:42;;;;;;;88.68;41.78;;;11.70;99.90;;;;;;5030718;28;20080;-73
2022/01/01 02:19:27;;;;;;;75.93;40.75;;;11.60;99.90;;;;;;5030801;28;20048;-72
2022/01/01 02:21:56;;;;;;;93.05;42.13;;;11.60;99.90;;;;;;5013394;28;20041;-72
2022/01/01 02:24:23;;;;;;;87.28;42.97;;;11.60;99.90;;;;;;5030723;28;20045;-73
2022/01/01 02:26:49;;;;;;;99.45;43.78;;;11.70;99.90;;;;;;5030896;28;20489;-73
2022/01/01 02:29:14;;;;;;;96.65;45.78;;;11.70;99.90;;;;;;5030547;28;20038;-72
2022/01/01 02:31:40;;;;;;;87.40;42.67;;;11.60;99.90;;;;;;5030349;28;20580;-73
2022/01/01 02:34:08;;;;;;;101.28;46.70;;;11.60;99.90;;;;;;5030633;28;20038;-72
2022/01/01 02:36:36;;;;;;;94.72;46.00;;;11.60;99.90;;;;;;5030791;28;20103;-72
2022/01/01 02:39:10;;;;;;;97.55;47.80;;;11.60;99.90;;;;;;5030765;28;20156;-73
2022/01/01 02:41:36;;;;;;;104.53;48.88;;;11.60;99.90;;;;;;5030360;28;20042;-72
2022/01/01 02:44:01;;;;;;;98.97;49.05;;;11.60;99.90;;;;;;5030439;28;20041;-72
2022/01/01 02:46:27;;;;;;;97.55;47.35;;;11.60;99.90;;;;;;5014155;28;20033;-73
2022/01/01 02:48:52;;;;;;;104.10;49.75;;;11.60;99.90;;;;;;5031821;28;20041;-72
2022/01/01 02:51:18;;;;;;;109.20;49.10;;;11.60;99.90;;;;;;5030338;28;20476;-73
2022/01/01 02:53:44;;;;;;;100.40;49.58;;;11.60;99.90;;;;;;5029839;28;20046;-73
2022/01/01 02:56:10;;;;;;;103.78;49.35;;;11.60;99.90;;;;;;5030458;28;20524;-73
2022/01/01 02:58:35;;;;;;;107.53;49.13;;;11.60;99.90;;;;;;5013653;28;20117;-72
2022/01/01 03:01:01;;;;;;;103.05;49.47;;;11.60;99.90;;;;;;5029869;28;20037;-73
2022/01/01 03:03:26;;;;;;;109.32;51.15;;;11.60;99.90;;;;;;5037580;28;20044;-72
2022/01/01 03:05:52;;;;;;;108.60;51.13;;;11.50;99.90;;;;;;5037160;28;20088;-72
2022/01/01 03:08:17;;;;;;;109.68;51.03;;;11.60;99.90;;;;;;5030150;28;20090;-73
2022/01/01 03:10:45;;;;;;;108.80;51.70;;;11.50;99.90;;;;;;5029996;28;20048;-73
2022/01/01 03:13:10;;;;;;;107.55;51.92;;;11.50;99.90;;;;;;5029652;28;20046;-74
2022/01/01 03:15:36;;;;;;;101.80;51.15;;;11.60;99.90;;;;;;5029875;28;20478;-73
2022/01/01 03:18:02;;;;;;;99.25;50.25;;;11.50;99.90;;;;;;5030022;28;20075;-73
2022/01/01 03:20:27;;;;;;;105.55;51.75;;;11.50;99.90;;;;;;5029735;28;20042;-74
2022/01/01 03:22:53;;;;;;;113.75;51.35;;;11.50;99.90;;;;;;5029376;28;20041;-73
2022/01/01 03:25:18;;;;;;;109.78;51.40;;;11.60;99.90;;;;;;5029795;28;20045;-73
2022/01/01 03:27:44;;;;;;;106.68;51.00;;;11.50;99.90;;;;;;5029854;28;20051;-73
2022/01/01 03:30:10;;;;;;;105.18;53.03;;;11.60;99.90;;;;;;5029891;28;20080;-73
2022/01/01 03:32:35;;;;;;;119.80;54.00;;;11.50;99.90;;;;;;5029133;28;20045;-73
2022/01/01 03:35:01;;;;;;;109.22;53.30;;;11.60;99.90;;;;;;5030049;28;20073;-73
2022/01/01 03:37:26;;;;;;;115.97;51.08;;;11.60;99.90;;;;;;5029731;28;20041;-73
2022/01/01 03:39:52;;;;;;;109.95;51.72;;;11.60;99.90;;;;;;5029461;28;20038;-73
2022/01/01 03:42:17;;;;;;;108.85;54.45;;;11.60;99.90;;;;;;5045946;28;20045;-73
2022/01/01 03:44:43;;;;;;;102.72;52.45;;;11.60;99.90;;;;;;5029550;28;20041;-73
2022/01/01 03:47:09;;;;;;;110.65;53.17;;;11.60;99.90;;;;;;5013052;28;20152;-73
2022/01/01 03:49:36;;;;;;;108.38;51.78;;;11.60;99.90;;;;;;5029745;28;20533;-73
2022/01/01 03:52:03;;;;;;;99.63;50.08;;;11.60;99.90;;;;;;5029282;28;20126;-73
2022/01/01 03:54:28;;;;;;;107.32;50.10;;;11.60;99.90;;;;;;5029499;28;20045;-73
2022/01/01 03:56:54;;;;;;;106.03;52.83;;;11.60;99.90;;;;;;5029617;28;20045;-73
2022/01/01 03:59:20;;;;;;;102.68;52.00;;;11.60;99.90;;;;;;5029375;28;20064;-73
2022/01/01 04:01:46;;;;;;;107.35;52.53;;;11.60;99.90;;;;;;5030499;28;20052;-73
2022/01/01 04:04:12;;;;;;;107.97;51.95;;;11.60;99.90;;;;;;5029377;28;20116;-73
2022/01/01 04:06:38;;;;;;;101.47;49.88;;;11.60;99.90;;;;;;5029693;28;20056;-73
2022/01/01 04:09:04;;;;;;;103.10;49.97;;;11.50;99.90;;;;;;5029447;28;20042;-73
2022/01/01 04:11:29;;;;;;;98.78;50.55;;;11.60;99.90;;;;;;5029521;28;20036;-72
2022/01/01 04:13:55;;;;;;;102.65;49.45;;;11.60;99.90;;;;;;5029636;28;20076;-73
2022/01/01 04:16:21;;;;;;;107.22;48.88;;;11.60;99.90;;;;;;5036757;28;20041;-72
2022/01/01 04:18:46;;;;;;;99.10;48.30;;;11.50;99.90;;;;;;5040833;28;20037;-73
2022/01/01 04:21:13;;;;;;;93.65;45.90;;;11.60;99.90;;;;;;5030532;28;20045;-73
2022/01/01 04:23:41;;;;;;;95.43;47.10;;;11.60;99.90;;;;;;5029065;28;20128;-73
2022/01/01 04:26:07;;;;;;;104.53;48.95;;;11.60;99.90;;;;;;5029377;28;20494;-73
2022/01/01 04:28:33;;;;;;;94.07;46.47;;;11.60;99.90;;;;;;5029090;28;20049;-73
2022/01/01 04:30:59;;;;;;;102.80;46.92;;;11.60;99.90;;;;;;5030716;28;20048;-73
2022/01/01 04:33:25;;;;;;;98.13;46.22;;;11.60;99.90;;;;;;5028830;28;20068;-73
2022/01/01 04:35:50;;;;;;;93.38;44.83;;;11.60;99.90;;;;;;5029150;28;20041;-73
2022/01/01 04:38:36;;;;;;;95.30;44.55;;;11.60;99.90;;;;;;5029174;28;20038;-73
2022/01/01 04:41:07;;;;;;;92.75;45.30;;;11.60;99.90;;;;;;5012780;28;20077;-73
2022/01/01 04:43:35;;;;;;;83.72;42.05;;;11.50;99.90;;;;;;5028898;28;20076;-73
2022/01/01 04:46:01;;;;;;;91.35;45.47;;;11.60;99.90;;;;;;5031472;28;20045;-73
2022/01/01 04:48:27;;;;;;;93.43;43.03;;;11.60;99.90;;;;;;5033970;28;20102;-73
2022/01/01 04:50:52;;;;;;;102.43;45.28;;;11.60;99.90;;;;;;5033701;28;20064;-73
2022/01/01 04:53:19;;;;;;;97.80;46.30;;;11.60;99.90;;;;;;5031964;28;20485;-73
2022/01/01 04:55:45;;;;;;;96.00;43.42;;;11.60;99.90;;;;;;5015938;28;20160;-73
2022/01/01 04:58:11;;;;;;;87.47;44.15;;;11.60;99.90;;;;;;5032620;28;20037;-73
2022/01/01 05:00:37;;;;;;;100.72;45.00;;;11.60;99.90;;;;;;5032393;28;20048;-73
2022/01/01 05:03:02;;;;;;;83.32;41.28;;;11.60;99.90;;;;;;5032218;28;20085;-73
2022/01/01 05:05:28;;;;;;;86.05;42.83;;;11.60;99.90;;;;;;5033594;28;20041;-73
2022/01/01 05:07:53;;;;;;;86.60;44.47;;;11.50;99.90;;;;;;5033418;28;20042;-73
2022/01/01 05:10:19;;;;;;;87.47;43.20;;;11.60;99.90;;;;;;5033299;28;20038;-72
2022/01/01 05:12:45;;;;;;;89.00;42.90;;;11.60;99.90;;;;;;5033280;28;20104;-73
2022/01/01 05:15:10;;;;;;;87.65;43.00;;;11.60;99.90;;;;;;5033440;28;20030;-73
2022/01/01 05:17:36;;;;;;;82.85;41.20;;;11.50;99.90;;;;;;5048546;28;20056;-73
2022/01/01 05:20:03;;;;;;;95.03;42.10;;;11.60;99.90;;;;;;5033170;28;20041;-73
2022/01/01 05:22:28;;;;;;;94.40;42.15;;;11.60;99.90;;;;;;5031583;28;20516;-73
2022/01/01 05:24:59;;;;;;;85.07;42.85;;;11.60;99.90;;;;;;5031810;28;20041;-73
2022/01/01 05:27:26;;;;;;;92.72;42.22;;;11.60;99.90;;;;;;5032608;28;20061;-73
2022/01/01 05:29:52;;;;;;;86.28;39.03;;;11.60;99.90;;;;;;5038921;28;20084;-73
2022/01/01 05:32:17;;;;;;;89.10;41.50;;;11.70;99.90;;;;;;5043333;28;20510;-73
2022/01/01 05:34:43;;;;;;;91.78;39.28;;;11.60;99.90;;;;;;5032193;28;20045;-73
2022/01/01 05:37:09;;;;;;;86.80;38.05;;;11.60;99.90;;;;;;5031742;28;20040;-73
2022/01/01 05:39:34;;;;;;;92.07;38.75;;;11.60;99.90;;;;;;5031864;28;20041;-71
2022/01/01 05:42:00;;;;;;;72.95;36.13;;;11.60;99.90;;;;;;5032622;28;20061;-72
2022/01/01 05:44:25;;;;;;;77.55;32.95;;;11.60;99.90;;;;;;5031475;28;20501;-73
2022/01/01 05:46:53;;;;;;;63.95;28.98;;;11.60;99.90;;;;;;5031543;28;20075;-73
2022/01/01 05:49:19;;;;;;;63.67;28.20;;;11.60;99.90;;;;;;5031399;28;20048;-73
2022/01/01 05:51:44;;;;;;;61.70;25.25;;;11.60;99.90;;;;;;5032262;28;20382;-73
2022/01/01 05:54:10;;;;;;;57.97;24.80;;;11.60;99.90;;;;;;5031381;28;20069;-72
2022/01/01 05:56:35;;;;;;;63.25;25.40;;;11.60;99.90;;;;;;5031575;28;20505;-72
2022/01/01 05:59:01;;;;;;;58.80;22.80;;;11.60;99.90;;;;;;5032510;28;20425;-72
2022/01/01 06:01:26;;;;;;;62.25;25.35;;;11.60;99.90;;;;;;5032515;28;20048;-71
2022/01/01 06:03:52;;;;;;;57.60;24.35;;;11.60;99.90;;;;;;5031248;28;20077;-72
2022/01/01 06:06:17;;;;;;;56.70;21.67;;;11.60;99.90;;;;;;5014720;28;20050;-71
2022/01/01 06:08:43;;;;;;;61.95;22.98;;;11.60;99.90;;;;;;5031095;28;20124;-72
2022/01/01 06:11:08;;;;;;;54.88;21.10;;;11.70;99.90;;;;;;5032316;28;20121;-72
2022/01/01 06:13:34;;;;;;;52.58;21.38;;;11.60;99.90;;;;;;5031939;28;20056;-72
2022/01/01 06:15:59;;;;;;;46.28;20.20;;;11.60;99.90;;;;;;5032405;28;20044;-72
2022/01/01 06:18:25;;;;;;;43.58;19.48;;;11.60;99.90;;;;;;5031432;28;20060;-72
2022/01/01 06:20:50;;;;;;;48.17;19.63;;;11.60;99.90;;;;;;5032308;28;20038;-72
2022/01/01 06:23:16;;;;;;;51.75;18.98;;;11.60;99.90;;;;;;5030784;28;20413;-72
2022/01/01 06:25:42;;;;;;;55.28;19.63;;;11.60;99.90;;;;;;5014329;28;20702;-72
2022/01/01 06:28:07;;;;;;;46.88;19.13;;;11.60;99.90;;;;;;5030544;28;20387;-72
2022/01/01 06:30:33;;;;;;;51.38;20.08;;;11.60;99.90;;;;;;5030471;28;20391;-72
2022/01/01 06:33:01;;;;;;;54.38;18.77;;;11.60;99.90;;;;;;5031580;28;20042;-73
2022/01/01 06:35:27;;;;;;;46.80;19.25;;;11.60;99.90;;;;;;5030583;28;20041;-73
2022/01/01 06:37:52;;;;;;;56.13;18.65;;;11.60;99.90;;;;;;5030464;28;20725;-73
2022/01/01 06:40:18;;;;;;;49.58;17.75;;;11.70;99.90;;;;;;5014084;28;20038;-72
2022/01/01 06:42:43;;;;;;;46.00;18.95;;;11.60;99.90;;;;;;5034112;28;20038;-72
2022/01/01 06:45:09;;;;;;;48.20;18.85;;;11.70;99.90;;;;;;5039186;28;20048;-73
2022/01/01 06:47:35;;;;;;;52.92;19.10;;;11.70;99.90;;;;;;5034585;28;20120;-73
2022/01/01 06:50:00;;;;;;;47.53;18.13;;;11.70;99.90;;;;;;5030193;28;20073;-71
2022/01/01 06:52:26;;;;;;;45.35;17.63;;;11.70;99.90;;;;;;4994212;28;20042;-72
2022/01/01 06:54:51;;;;;;;46.60;17.77;;;11.70;99.90;;;;;;5010561;28;20041;-72
2022/01/01 06:57:17;;;;;;;50.58;18.83;;;11.60;99.90;;;;;;4994229;28;20050;-72
2022/01/01 06:59:42;;;;;;;47.80;18.45;;;11.70;99.90;;;;;;4994105;28;20077;-72
2022/01/01 07:02:08;;;;;;;45.50;18.08;;;11.60;99.90;;;;;;5010234;28;20042;-72
2022/01/01 07:04:33;;;;;;;41.60;17.83;;;11.70;99.90;;;;;;5010366;28;20566;-72
2022/01/01 07:06:59;;;;;;;48.08;19.10;;;11.70;99.90;;;;;;5010693;28;20521;-72
2022/01/01 07:09:24;;;;;;;49.40;17.90;;;11.70;99.90;;;;;;5011363;28;20517;-72
2022/01/01 07:11:50;;;;;;;49.58;18.52;;;11.60;99.90;;;;;;4993860;28;20049;-73
2022/01/01 07:14:16;;;;;;;51.20;18.13;;;11.70;99.90;;;;;;5010536;28;20129;-72
2022/01/01 07:16:41;;;;;;;43.85;18.08;;;11.70;99.90;;;;;;5010171;28;20462;-72
2022/01/01 07:19:07;;;;;;;50.08;18.95;;;11.60;99.90;;;;;;5010237;28;20049;-71
2022/01/01 07:21:33;;;;;;;45.17;18.83;;;11.60;99.90;;;;;;5010172;28;20050;-71
2022/01/01 07:23:59;;;;;;;46.17;17.85;;;11.70;99.90;;;;;;5010152;28;20041;-71
2022/01/01 07:26:24;;;;;;;40.10;19.70;;;11.60;99.90;;;;;;5011530;28;20085;-71
2022/01/01 07:28:50;;;;;;;49.65;18.35;;;11.60;99.90;;;;;;5010075;28;20069;-71
2022/01/01 07:31:18;;;;;;;44.15;18.92;;;11.60;99.90;;;;;;5010009;28;20487;-71
2022/01/01 07:33:43;;;;;;;46.78;18.38;;;11.70;99.90;;;;;;5009672;28;20048;-71
2022/01/01 07:36:09;;;;;;;45.33;19.10;;;11.60;99.90;;;;;;5010622;28;20449;-71
2022/01/01 07:38:34;;;;;;;54.08;21.25;;;11.60;99.90;;;;;;5012182;28;20033;-71
2022/01/01 07:41:00;;;;;;;51.95;21.17;;;11.60;99.90;;;;;;5012326;28;20124;-71
2022/01/01 07:43:27;;;;;;;55.22;20.38;;;11.60;99.90;;;;;;5010057;28;20497;-71
2022/01/01 07:45:53;;;;;;;55.00;19.13;;;11.60;99.90;;;;;;5013178;28;20046;-71
2022/01/01 07:48:18;;;;;;;54.88;20.70;;;11.60;99.90;;;;;;4997278;28;20095;-71
2022/01/01 07:50:44;;;;;;;51.22;21.35;;;11.60;99.90;;;;;;5010919;28;20517;-71
2022/01/01 07:53:10;;;;;;;47.75;20.45;;;11.60;99.90;;;;;;5009744;28;20045;-71
2022/01/01 07:55:35;;;;;;;54.90;21.52;;;11.60;99.90;;;;;;5011034;28;20117;-71
2022/01/01 07:58:02;;;;;;;54.70;21.20;;;11.60;99.90;;;;;;5009426;28;20038;-71
2022/01/01 08:00:27;;;;;;;61.15;23.83;;;11.60;99.90;;;;;;5009863;28;20073;-70
2022/01/01 08:02:53;;;;;;;54.00;22.30;;;11.60;99.90;;;;;;5008394;28;20038;-71
2022/01/01 08:05:19;;;;;;;57.67;22.60;;;11.60;99.90;;;;;;5009786;28;20046;-71
2022/01/01 08:07:46;;;;;;;60.70;23.30;;;11.60;99.90;;;;;;5009293;28;20053;-71
2022/01/01 08:10:12;;;;;;;66.72;24.88;;;11.60;99.90;;;;;;5009028;28;20045;-71
2022/01/01 08:12:40;;;;;;;59.25;25.15;;;11.60;99.90;;;;;;5009144;28;20068;-71
2022/01/01 08:15:07;;;;;;;56.92;22.67;;;11.60;99.90;;;;;;5008984;28;20494;-71
2022/01/01 08:17:33;;;;;;;61.88;24.67;;;11.60;99.90;;;;;;5012867;28;20052;-71
2022/01/01 08:19:58;;;;;;;65.55;25.13;;;11.60;99.90;;;;;;5015112;28;20045;-71
2022/01/01 08:22:24;;;;;;;65.75;24.83;;;11.70;99.90;;;;;;5013681;28;20486;-71
2022/01/01 08:24:50;;;;;;;56.28;24.63;;;11.70;99.90;;;;;;5012788;28;20045;-71
2022/01/01 08:27:16;;;;;;;59.42;24.77;;;11.70;99.90;;;;;;5012538;28;20041;-71
2022/01/01 08:29:42;;;;;;;59.10;27.13;;;11.70;99.90;;;;;;5014380;28;20422;-71
2022/01/01 08:32:08;;;;;;;66.05;25.42;;;11.70;99.90;;;;;;4996178;28;20057;-71
2022/01/01 08:34:34;;;;;;;53.38;25.77;;;11.70;99.90;;;;;;5026299;28;20107;-71
2022/01/01 08:37:00;;;;;;;60.78;25.42;;;11.70;99.90;;;;;;5028254;28;20042;-71
2022/01/01 08:39:26;;;;;;;59.58;26.25;;;11.70;99.90;;;;;;5023329;28;20038;-71
2022/01/01 08:41:52;;;;;;;57.65;24.85;;;11.70;99.90;;;;;;5023522;28;20038;-71
2022/01/01 08:44:17;;;;;;;63.70;25.98;;;11.80;99.90;;;;;;5019915;28;20453;-71
2022/01/01 08:46:43;;;;;;;60.20;24.33;;;11.70;99.90;;;;;;5012921;28;20038;-71
2022/01/01 08:49:09;;;;;;;66.97;26.38;;;11.70;99.90;;;;;;5016111;28;20513;-71
2022/01/01 08:51:36;;;;;;;70.80;26.90;;;11.80;99.90;;;;;;5018391;28;20048;-71
2022/01/01 08:54:02;;;;;;;65.18;25.48;;;11.80;99.90;;;;;;5013105;28;20078;-71
2022/01/01 08:56:28;;;;;;;61.72;25.45;;;11.80;99.90;;;;;;5013034;28;20049;-71
2022/01/01 08:58:54;;;;;;;60.20;26.08;;;11.80;99.90;;;;;;4996356;28;20503;-71
2022/01/01 09:01:20;;;;;;;60.97;25.85;;;11.80;99.90;;;;;;5012817;28;20046;-71
2022/01/01 09:03:46;;;;;;;58.30;24.42;;;11.80;99.90;;;;;;5012343;28;20042;-71
2022/01/01 09:06:12;;;;;;;56.03;24.55;;;11.80;99.90;;;;;;5013926;28;20034;-71
2022/01/01 09:08:40;;;;;;;55.92;25.33;;;11.80;99.90;;;;;;5018741;28;20048;-71
2022/01/01 09:11:07;;;;;;;56.50;26.50;;;11.80;99.90;;;;;;5015444;28;20090;-70
2022/01/01 09:13:33;;;;;;;56.65;23.95;;;11.80;99.90;;;;;;5017120;28;20053;-71
2022/01/01 09:16:00;;;;;;;57.25;24.58;;;11.90;99.90;;;;;;5033128;28;20501;-71
2022/01/01 09:18:25;;;;;;;53.55;23.70;;;11.90;99.90;;;;;;5031448;28;20397;-70
2022/01/01 09:20:51;;;;;;;57.78;24.33;;;11.90;99.90;;;;;;5030702;28;20155;-71
2022/01/01 09:23:17;;;;;;;57.53;24.30;;;11.90;99.90;;;;;;5023819;28;20046;-70
2022/01/01 09:25:42;;;;;;;55.65;24.33;;;11.90;99.90;;;;;;5022958;28;20127;-70
2022/01/01 09:28:11;;;;;;;57.67;24.00;;;12.00;99.90;;;;;;5014338;28;20049;-70
2022/01/01 09:30:36;;;;;;;51.95;23.38;;;12.00;99.90;;;;;;5030658;28;20096;-71
2022/01/01 09:33:03;;;;;;;58.13;23.13;;;12.00;99.90;;;;;;5031549;28;20046;-71
2022/01/01 09:35:28;;;;;;;54.92;23.60;;;12.00;99.90;;;;;;5032392;28;20037;-71
2022/01/01 09:37:54;;;;;;;43.47;21.65;;;12.00;99.90;;;;;;5031994;28;20049;-71
2022/01/01 09:40:23;;;;;;;45.50;21.20;;;12.10;99.90;;;;;;5015373;28;20045;-71
2022/01/01 09:42:49;;;;;;;49.67;21.40;;;12.10;99.90;;;;;;5032029;28;20613;-71
2022/01/01 09:45:19;;;;;;;41.95;19.90;;;12.10;99.90;;;;;;5032022;28;20404;-71
2022/01/01 09:47:46;;;;;;;42.47;18.48;;;12.10;99.90;;;;;;5033175;28;20041;-71
2022/01/01 09:50:12;;;;;;;42.40;18.25;;;12.20;99.90;;;;;;5032835;28;20045;-71
2022/01/01 09:52:38;;;;;;;43.03;18.33;;;12.20;99.90;;;;;;5031118;28;20394;-71
2022/01/01 09:55:05;;;;;;;36.17;17.77;;;12.20;99.90;;;;;;5031496;28;20038;-71
2022/01/01 09:57:30;;;;;;;40.70;17.35;;;12.30;99.90;;;;;;5031197;28;20049;-72
2022/01/01 09:59:56;;;;;;;36.78;17.83;;;12.30;99.90;;;;;;5031117;28;20409;-71
2022/01/01 10:02:21;;;;;;;43.65;17.77;;;12.30;99.90;;;;;;5032412;28;20433;-72
2022/01/01 10:04:50;;;;;;;36.05;17.17;;;12.40;99.90;;;;;;5014952;28;20071;-71
2022/01/01 10:07:16;;;;;;;32.08;16.00;;;12.40;99.90;;;;;;5031383;28;20069;-71
2022/01/01 10:09:42;;;;;;;34.25;15.00;;;12.50;99.90;;;;;;5031409;28;20041;-71
2022/01/01 10:12:14;;;;;;;34.25;15.25;;;12.50;99.90;;;;;;5014554;28;20049;-71
2022/01/01 10:14:47;;;;;;;30.90;13.88;;;12.50;99.90;;;;;;5015335;28;20511;-72
2022/01/01 10:17:14;;;;;;;40.17;15.05;;;12.50;99.90;;;;;;5032789;28;20041;-71
2022/01/01 10:19:40;;;;;;;32.78;13.32;;;12.50;99.90;;;;;;5031218;28;20497;-71
2022/01/01 10:22:07;;;;;;;31.52;11.68;;;12.60;99.90;;;;;;5032434;28;20037;-71
2022/01/01 10:30:01;;;;;;;33.42;11.95;;;13.00;99.90;;;;;;5037098;28;20441;-71
2022/01/01 10:32:27;;;;;;;24.35;10.80;;;13.00;99.90;;;;;;5029727;28;20146;-72
2022/01/01 10:34:53;;;;;;;27.00;10.75;;;12.80;99.90;;;;;;5020594;28;20498;-72
2022/01/01 10:37:24;;;;;;;25.25;10.85;;;12.70;99.90;;;;;;5022849;28;20112;-71
2022/01/01 10:39:51;;;;;;;24.42;10.25;;;12.70;99.90;;;;;;5030172;28;20033;-71
2022/01/01 10:42:17;;;;;;;23.23;10.18;;;12.70;99.90;;;;;;5012637;28;20037;-71
2022/01/01 10:44:52;;;;;;;22.50;10.75;;;12.60;99.90;;;;;;5013552;28;20048;-71
2022/01/01 10:47:25;;;;;;;23.58;10.05;;;12.60;99.90;;;;;;5027723;28;20095;-71
2022/01/01 10:50:14;;;;;;;23.85;11.35;;;12.60;99.90;;;;;;5030038;28;20044;-72
2022/01/01 10:52:48;;;;;;;24.73;10.93;;;12.50;99.90;;;;;;5029457;28;20128;-73
2022/01/01 10:55:15;;;;;;;26.00;11.23;;;12.60;99.90;;;;;;5031387;28;20034;-73
2022/01/01 10:57:58;;;;;;;26.08;9.98;;;12.60;99.90;;;;;;5031292;28;20069;-72
2022/01/01 11:00:25;;;;;;;24.55;10.27;;;12.50;99.90;;;;;;5031798;28;20037;-72
2022/01/01 11:02:56;;;;;;;27.30;10.10;;;12.60;99.90;;;;;;5031342;28;20041;-72
2022/01/01 11:05:32;;;;;;;25.77;10.82;;;12.50;99.90;;;;;;5014454;28;20134;-72
2022/01/01 11:07:58;;;;;;;22.33;9.35;;;12.50;99.90;;;;;;5013899;28;20046;-72
2022/01/01 11:10:25;;;;;;;20.55;9.98;;;12.50;99.90;;;;;;5030182;28;20046;-72
2022/01/01 11:12:52;;;;;;;26.42;9.40;;;12.50;99.90;;;;;;5031289;28;20042;-71
2022/01/01 11:15:18;;;;;;;21.48;9.13;;;12.60;99.90;;;;;;5030498;28;20510;-72
2022/01/01 11:17:46;;;;;;;22.10;8.57;;;12.50;99.90;;;;;;5031439;28;20116;-72
2022/01/01 11:20:12;;;;;;;21.45;8.80;;;12.50;99.90;;;;;;5029910;28;20489;-72
2022/01/01 11:22:37;;;;;;;18.30;8.45;;;12.50;99.90;;;;;;5030988;28;20045;-72
2022/01/01 11:25:04;;;;;;;22.00;7.90;;;12.60;99.90;;;;;;5031226;28;20052;-72
2022/01/01 11:27:31;;;;;;;18.98;9.32;;;12.50;99.90;;;;;;5029872;28;20156;-72
2022/01/01 11:29:59;;;;;;;17.50;8.23;;;12.50;99.90;;;;;;5029673;28;20045;-72
2022/01/01 11:32:39;;;;;;;25.90;8.30;;;12.60;99.90;;;;;;5019310;28;20046;-72
2022/01/01 11:35:10;;;;;;;17.30;7.88;;;12.50;99.90;;;;;;5019686;28;20064;-72
2022/01/01 11:37:57;;;;;;;19.20;7.43;;;12.50;99.90;;;;;;5009208;28;20046;-72
2022/01/01 11:40:23;;;;;;;18.27;7.63;;;12.50;99.90;;;;;;5013674;28;20359;-72
2022/01/01 11:42:48;;;;;;;15.35;7.22;;;12.50;99.90;;;;;;5021002;28;20081;-72
2022/01/01 11:45:41;;;;;;;21.15;8.00;;;12.50;99.90;;;;;;5029972;28;20057;-71
2022/01/01 11:48:41;;;;;;;20.08;8.07;;;12.60;99.90;;;;;;5011311;28;20409;-72
2022/01/01 11:51:31;;;;;;;15.07;7.40;;;12.50;99.90;;;;;;5011344;28;20057;-71
2022/01/01 11:54:17;;;;;;;18.63;7.90;;;12.50;99.90;;;;;;5010665;28;20157;-72
2022/01/01 11:56:51;;;;;;;22.13;9.35;;;12.50;99.90;;;;;;5013996;28;20593;-72
2022/01/01 11:59:22;;;;;;;21.00;10.43;;;12.50;99.90;;;;;;5013709;28;20060;-72
2022/01/01 12:01:49;;;;;;;17.20;8.65;;;12.60;99.90;;;;;;5029264;28;20050;-72
2022/01/01 12:04:31;;;;;;;29.65;9.02;;;12.50;99.90;;;;;;5030219;28;20517;-72
2022/01/01 12:07:21;;;;;;;23.57;8.60;;;12.50;99.90;;;;;;5030355;28;20050;-72
2022/01/01 12:10:11;;;;;;;23.95;8.10;;;12.50;99.90;;;;;;5014197;28;20053;-71
2022/01/01 12:12:44;;;;;;;15.73;7.53;;;12.60;99.90;;;;;;5013426;28;20045;-72
2022/01/01 12:15:23;;;;;;;16.63;7.43;;;12.60;99.90;;;;;;5015536;28;20033;-72
2022/01/01 12:17:56;;;;;;;18.73;7.60;;;12.60;99.90;;;;;;5013640;28;20552;-71
2022/01/01 12:20:25;;;;;;;19.63;8.82;;;12.60;99.90;;;;;;5029522;28;20048;-72
2022/01/01 12:22:52;;;;;;;19.38;7.57;;;12.60;99.90;;;;;;5030179;28;20440;-71
2022/01/01 12:25:22;;;;;;;18.75;8.07;;;12.60;99.90;;;;;;5033178;28;20688;-72
2022/01/01 12:27:51;;;;;;;14.40;7.45;;;12.70;99.90;;;;;;5016513;28;20510;-75
2022/01/01 12:30:38;;;;;;;20.02;7.75;;;12.70;99.90;;;;;;5016386;28;20502;-72
2022/01/01 12:33:06;;;;;;;17.20;7.68;;;12.60;99.90;;;;;;5032553;28;20087;-72
2022/01/01 12:35:48;;;;;;;21.42;8.95;;;12.60;99.90;;;;;;5026766;28;20038;-72
2022/01/01 12:38:18;;;;;;;18.47;9.00;;;12.60;99.90;;;;;;5020811;28;20042;-72